sensor_id;sensor_type;location;lat;lon;timestamp;P1;durP1;ratioP1;P2;durP2;ratioP2
46447;SDS011;32145;50.390;30.778;2022-12-18T00:46:26;30.00;;;12.32;;
46447;SDS011;32145;50.390;30.778;2022-12-18T00:49:13;27.00;;;12.75;;
46447;SDS011;32145;50.390;30.778;2022-12-18T00:51:58;28.02;;;13.80;;
46447;SDS011;32145;50.390;30.778;2022-12-18T00:54:42;28.70;;;14.35;;
46447;SDS011;32145;50.390;30.778;2022-12-18T00:57:26;28.33;;;13.43;;
46447;SDS011;32145;50.390;30.778;2022-12-18T01:00:10;21.15;;;10.25;;
46447;SDS011;32145;50.390;30.778;2022-12-18T01:02:57;30.73;;;14.15;;
46447;SDS011;32145;50.390;30.778;2022-12-18T01:05:41;29.83;;;14.93;;
46447;SDS011;32145;50.390;30.778;2022-12-18T01:08:26;20.30;;;11.07;;
46447;SDS011;32145;50.390;30.778;2022-12-18T01:11:10;25.33;;;12.43;;
46447;SDS011;32145;50.390;30.778;2022-12-18T01:13:56;22.80;;;11.32;;
46447;SDS011;32145;50.390;30.778;2022-12-18T01:16:40;20.25;;;10.20;;
46447;SDS011;32145;50.390;30.778;2022-12-18T01:19:25;25.15;;;12.63;;
46447;SDS011;32145;50.390;30.778;2022-12-18T01:22:09;28.60;;;13.80;;
46447;SDS011;32145;50.390;30.778;2022-12-18T01:24:53;23.33;;;11.25;;
46447;SDS011;32145;50.390;30.778;2022-12-18T01:27:37;25.95;;;13.68;;
46447;SDS011;32145;50.390;30.778;2022-12-18T01:30:21;23.15;;;13.00;;
46447;SDS011;32145;50.390;30.778;2022-12-18T01:33:05;17.35;;;9.93;;
46447;SDS011;32145;50.390;30.778;2022-12-18T01:35:50;25.42;;;13.00;;
46447;SDS011;32145;50.390;30.778;2022-12-18T01:38:34;27.52;;;12.77;;
46447;SDS011;32145;50.390;30.778;2022-12-18T01:41:19;27.65;;;12.38;;
46447;SDS011;32145;50.390;30.778;2022-12-18T01:47:26;26.88;;;13.00;;
46447;SDS011;32145;50.390;30.778;2022-12-18T01:50:17;25.40;;;13.55;;
46447;SDS011;32145;50.390;30.778;2022-12-18T01:53:07;25.40;;;12.55;;
46447;SDS011;32145;50.390;30.778;2022-12-18T01:55:57;23.95;;;12.43;;
46447;SDS011;32145;50.390;30.778;2022-12-18T01:58:45;20.40;;;9.02;;
46447;SDS011;32145;50.390;30.778;2022-12-18T02:01:33;26.63;;;12.63;;
46447;SDS011;32145;50.390;30.778;2022-12-18T02:04:19;28.30;;;13.90;;
46447;SDS011;32145;50.390;30.778;2022-12-18T02:07:07;25.48;;;12.82;;
46447;SDS011;32145;50.390;30.778;2022-12-18T02:09:59;31.17;;;13.35;;
46447;SDS011;32145;50.390;30.778;2022-12-18T02:12:50;29.55;;;12.90;;
46447;SDS011;32145;50.390;30.778;2022-12-18T02:15:42;28.58;;;14.18;;
46447;SDS011;32145;50.390;30.778;2022-12-18T02:18:32;25.20;;;11.95;;
46447;SDS011;32145;50.390;30.778;2022-12-18T02:21:21;22.30;;;10.73;;
46447;SDS011;32145;50.390;30.778;2022-12-18T02:24:18;25.23;;;11.68;;
46447;SDS011;32145;50.390;30.778;2022-12-18T02:27:14;26.60;;;13.43;;
46447;SDS011;32145;50.390;30.778;2022-12-18T02:29:59;23.48;;;10.30;;
46447;SDS011;32145;50.390;30.778;2022-12-18T02:32:46;26.70;;;13.02;;
46447;SDS011;32145;50.390;30.778;2022-12-18T02:35:34;30.23;;;13.70;;
46447;SDS011;32145;50.390;30.778;2022-12-18T02:38:19;25.77;;;12.57;;
46447;SDS011;32145;50.390;30.778;2022-12-18T02:41:04;32.47;;;14.50;;
46447;SDS011;32145;50.390;30.778;2022-12-18T02:43:53;25.48;;;13.20;;
46447;SDS011;32145;50.390;30.778;2022-12-18T02:46:40;21.83;;;10.75;;
46447;SDS011;32145;50.390;30.778;2022-12-18T02:49:29;25.95;;;12.95;;
46447;SDS011;32145;50.390;30.778;2022-12-18T02:52:19;26.42;;;13.52;;
46447;SDS011;32145;50.390;30.778;2022-12-18T02:55:18;20.80;;;10.32;;
46447;SDS011;32145;50.390;30.778;2022-12-18T02:58:10;25.25;;;12.10;;
46447;SDS011;32145;50.390;30.778;2022-12-18T03:01:02;24.30;;;11.90;;
46447;SDS011;32145;50.390;30.778;2022-12-18T03:03:54;22.55;;;9.63;;
46447;SDS011;32145;50.390;30.778;2022-12-18T03:06:41;27.70;;;12.68;;
46447;SDS011;32145;50.390;30.778;2022-12-18T03:09:29;21.30;;;8.77;;
46447;SDS011;32145;50.390;30.778;2022-12-18T03:12:18;27.35;;;12.50;;
46447;SDS011;32145;50.390;30.778;2022-12-18T03:15:07;24.67;;;11.50;;
46447;SDS011;32145;50.390;30.778;2022-12-18T03:17:59;26.27;;;12.00;;
46447;SDS011;32145;50.390;30.778;2022-12-18T03:20:48;23.33;;;9.75;;
46447;SDS011;32145;50.390;30.778;2022-12-18T03:23:36;27.20;;;13.27;;
46447;SDS011;32145;50.390;30.778;2022-12-18T03:26:24;17.13;;;8.50;;
46447;SDS011;32145;50.390;30.778;2022-12-18T03:29:12;26.88;;;12.63;;
46447;SDS011;32145;50.390;30.778;2022-12-18T03:32:02;25.73;;;11.65;;
46447;SDS011;32145;50.390;30.778;2022-12-18T03:34:51;24.83;;;12.75;;
46447;SDS011;32145;50.390;30.778;2022-12-18T03:37:39;24.65;;;12.55;;
46447;SDS011;32145;50.390;30.778;2022-12-18T03:40:25;26.20;;;12.50;;
46447;SDS011;32145;50.390;30.778;2022-12-18T03:43:16;27.45;;;13.15;;
46447;SDS011;32145;50.390;30.778;2022-12-18T03:46:06;19.65;;;8.93;;
46447;SDS011;32145;50.390;30.778;2022-12-18T03:48:59;19.98;;;10.05;;
46447;SDS011;32145;50.390;30.778;2022-12-18T03:51:50;23.50;;;11.52;;
46447;SDS011;32145;50.390;30.778;2022-12-18T03:54:38;21.85;;;10.85;;
46447;SDS011;32145;50.390;30.778;2022-12-18T03:57:25;21.45;;;10.25;;
46447;SDS011;32145;50.390;30.778;2022-12-18T04:00:13;23.30;;;11.73;;
46447;SDS011;32145;50.390;30.778;2022-12-18T04:03:00;24.95;;;10.95;;
46447;SDS011;32145;50.390;30.778;2022-12-18T04:05:47;20.67;;;8.77;;
46447;SDS011;32145;50.390;30.778;2022-12-18T04:08:36;23.17;;;11.38;;
46447;SDS011;32145;50.390;30.778;2022-12-18T04:11:20;23.02;;;11.25;;
46447;SDS011;32145;50.390;30.778;2022-12-18T04:14:04;23.25;;;11.90;;
46447;SDS011;32145;50.390;30.778;2022-12-18T04:16:48;22.38;;;12.15;;
46447;SDS011;32145;50.390;30.778;2022-12-18T04:19:32;24.52;;;11.43;;
46447;SDS011;32145;50.390;30.778;2022-12-18T04:22:15;21.08;;;11.40;;
46447;SDS011;32145;50.390;30.778;2022-12-18T04:25:01;21.75;;;11.23;;
46447;SDS011;32145;50.390;30.778;2022-12-18T04:27:45;23.80;;;11.75;;
46447;SDS011;32145;50.390;30.778;2022-12-18T04:30:29;25.05;;;11.80;;
46447;SDS011;32145;50.390;30.778;2022-12-18T04:33:13;24.48;;;11.73;;
46447;SDS011;32145;50.390;30.778;2022-12-18T04:35:57;23.13;;;11.45;;
46447;SDS011;32145;50.390;30.778;2022-12-18T04:38:41;24.30;;;11.85;;
46447;SDS011;32145;50.390;30.778;2022-12-18T04:41:26;18.23;;;8.73;;
46447;SDS011;32145;50.390;30.778;2022-12-18T04:44:10;23.33;;;11.52;;
46447;SDS011;32145;50.390;30.778;2022-12-18T04:46:54;20.65;;;10.45;;
46447;SDS011;32145;50.390;30.778;2022-12-18T04:49:38;21.67;;;10.18;;
46447;SDS011;32145;50.390;30.778;2022-12-18T04:52:22;17.63;;;9.05;;
46447;SDS011;32145;50.390;30.778;2022-12-18T04:55:06;19.88;;;9.63;;
46447;SDS011;32145;50.390;30.778;2022-12-18T04:57:52;17.50;;;9.50;;
46447;SDS011;32145;50.390;30.778;2022-12-18T05:00:36;19.35;;;9.48;;
46447;SDS011;32145;50.390;30.778;2022-12-18T05:03:20;19.63;;;8.52;;
46447;SDS011;32145;50.390;30.778;2022-12-18T05:06:04;19.95;;;9.63;;
46447;SDS011;32145;50.390;30.778;2022-12-18T05:08:49;17.85;;;9.07;;
46447;SDS011;32145;50.390;30.778;2022-12-18T05:11:33;17.67;;;9.35;;
46447;SDS011;32145;50.390;30.778;2022-12-18T05:14:18;16.67;;;8.63;;
46447;SDS011;32145;50.390;30.778;2022-12-18T05:17:03;17.30;;;8.73;;
46447;SDS011;32145;50.390;30.778;2022-12-18T05:19:46;13.85;;;5.93;;
46447;SDS011;32145;50.390;30.778;2022-12-18T05:22:30;14.30;;;6.95;;
46447;SDS011;32145;50.390;30.778;2022-12-18T05:25:15;16.08;;;8.73;;
46447;SDS011;32145;50.390;30.778;2022-12-18T05:27:59;14.32;;;7.32;;
46447;SDS011;32145;50.390;30.778;2022-12-18T05:30:46;16.20;;;7.80;;
46447;SDS011;32145;50.390;30.778;2022-12-18T05:33:32;16.37;;;8.50;;
46447;SDS011;32145;50.390;30.778;2022-12-18T05:36:17;12.30;;;5.50;;
46447;SDS011;32145;50.390;30.778;2022-12-18T05:39:01;16.95;;;8.27;;
46447;SDS011;32145;50.390;30.778;2022-12-18T05:41:46;18.90;;;8.32;;
46447;SDS011;32145;50.390;30.778;2022-12-18T05:44:30;16.90;;;7.75;;
46447;SDS011;32145;50.390;30.778;2022-12-18T05:47:15;20.23;;;9.80;;
46447;SDS011;32145;50.390;30.778;2022-12-18T05:49:59;16.08;;;7.18;;
46447;SDS011;32145;50.390;30.778;2022-12-18T05:52:43;18.00;;;8.07;;
46447;SDS011;32145;50.390;30.778;2022-12-18T05:55:27;13.25;;;7.32;;
46447;SDS011;32145;50.390;30.778;2022-12-18T05:58:12;14.35;;;7.10;;
46447;SDS011;32145;50.390;30.778;2022-12-18T06:00:56;16.75;;;7.88;;
46447;SDS011;32145;50.390;30.778;2022-12-18T06:03:42;17.45;;;8.10;;
46447;SDS011;32145;50.390;30.778;2022-12-18T06:06:26;17.55;;;8.50;;
46447;SDS011;32145;50.390;30.778;2022-12-18T06:09:11;18.10;;;9.07;;
46447;SDS011;32145;50.390;30.778;2022-12-18T06:11:55;17.00;;;8.90;;
46447;SDS011;32145;50.390;30.778;2022-12-18T06:14:39;15.88;;;7.65;;
46447;SDS011;32145;50.390;30.778;2022-12-18T06:17:27;18.02;;;8.73;;
46447;SDS011;32145;50.390;30.778;2022-12-18T06:20:13;19.23;;;9.30;;
46447;SDS011;32145;50.390;30.778;2022-12-18T06:22:56;18.73;;;9.52;;
46447;SDS011;32145;50.390;30.778;2022-12-18T06:25:40;14.07;;;6.82;;
46447;SDS011;32145;50.390;30.778;2022-12-18T06:28:24;19.10;;;7.97;;
46447;SDS011;32145;50.390;30.778;2022-12-18T06:31:08;16.45;;;7.93;;
46447;SDS011;32145;50.390;30.778;2022-12-18T06:33:53;17.20;;;8.32;;
46447;SDS011;32145;50.390;30.778;2022-12-18T06:36:38;19.33;;;9.10;;
46447;SDS011;32145;50.390;30.778;2022-12-18T06:39:22;21.17;;;10.20;;
46447;SDS011;32145;50.390;30.778;2022-12-18T10:25:09;8.88;;;4.68;;
46447;SDS011;32145;50.390;30.778;2022-12-18T10:28:07;15.07;;;7.82;;
46447;SDS011;32145;50.390;30.778;2022-12-18T10:34:16;9.73;;;5.25;;
46447;SDS011;32145;50.390;30.778;2022-12-18T10:37:00;12.75;;;6.22;;
46447;SDS011;32145;50.390;30.778;2022-12-18T10:43:05;19.25;;;8.02;;
46447;SDS011;32145;50.390;30.778;2022-12-18T10:45:58;17.08;;;8.90;;
46447;SDS011;32145;50.390;30.778;2022-12-18T10:48:56;11.82;;;6.45;;
46447;SDS011;32145;50.390;30.778;2022-12-18T10:51:41;17.58;;;7.82;;
46447;SDS011;32145;50.390;30.778;2022-12-18T10:54:25;16.98;;;8.88;;
46447;SDS011;32145;50.390;30.778;2022-12-18T11:00:23;14.15;;;7.20;;
46447;SDS011;32145;50.390;30.778;2022-12-18T11:06:13;15.75;;;7.80;;
46447;SDS011;32145;50.390;30.778;2022-12-18T11:08:59;12.23;;;5.72;;
46447;SDS011;32145;50.390;30.778;2022-12-18T11:11:47;15.82;;;8.70;;
46447;SDS011;32145;50.390;30.778;2022-12-18T11:14:34;14.57;;;7.65;;
46447;SDS011;32145;50.390;30.778;2022-12-18T11:17:28;15.23;;;7.95;;
46447;SDS011;32145;50.390;30.778;2022-12-18T11:20:20;17.05;;;8.70;;
46447;SDS011;32145;50.390;30.778;2022-12-18T11:23:11;16.48;;;7.72;;
46447;SDS011;32145;50.390;30.778;2022-12-18T11:25:57;12.57;;;6.57;;
46447;SDS011;32145;50.390;30.778;2022-12-18T11:28:44;10.98;;;6.05;;
46447;SDS011;32145;50.390;30.778;2022-12-18T11:31:35;11.70;;;5.57;;
46447;SDS011;32145;50.390;30.778;2022-12-18T11:34:20;11.80;;;5.78;;
46447;SDS011;32145;50.390;30.778;2022-12-18T11:37:09;13.38;;;6.50;;
46447;SDS011;32145;50.390;30.778;2022-12-18T11:39:57;9.77;;;5.10;;
46447;SDS011;32145;50.390;30.778;2022-12-18T11:42:46;12.95;;;6.22;;
46447;SDS011;32145;50.390;30.778;2022-12-18T11:45:35;14.35;;;7.57;;
46447;SDS011;32145;50.390;30.778;2022-12-18T11:48:28;16.08;;;7.97;;
46447;SDS011;32145;50.390;30.778;2022-12-18T11:51:18;14.48;;;6.00;;
46447;SDS011;32145;50.390;30.778;2022-12-18T11:54:08;16.00;;;7.50;;
46447;SDS011;32145;50.390;30.778;2022-12-18T11:56:56;13.07;;;7.15;;
46447;SDS011;32145;50.390;30.778;2022-12-18T11:59:48;12.65;;;6.43;;
46447;SDS011;32145;50.390;30.778;2022-12-18T12:02:51;21.50;;;7.53;;
46447;SDS011;32145;50.390;30.778;2022-12-18T12:06:00;13.30;;;6.60;;
46447;SDS011;32145;50.390;30.778;2022-12-18T12:08:54;12.82;;;5.72;;
46447;SDS011;32145;50.390;30.778;2022-12-18T12:11:50;13.20;;;6.85;;
46447;SDS011;32145;50.390;30.778;2022-12-18T12:14:52;11.18;;;5.93;;
46447;SDS011;32145;50.390;30.778;2022-12-18T12:17:44;11.80;;;5.18;;
46447;SDS011;32145;50.390;30.778;2022-12-18T12:20:37;13.63;;;5.85;;
46447;SDS011;32145;50.390;30.778;2022-12-18T12:23:34;11.88;;;6.38;;
46447;SDS011;32145;50.390;30.778;2022-12-18T12:26:26;10.43;;;5.68;;
46447;SDS011;32145;50.390;30.778;2022-12-18T12:29:24;9.93;;;5.63;;
46447;SDS011;32145;50.390;30.778;2022-12-18T12:32:20;11.30;;;5.45;;
46447;SDS011;32145;50.390;30.778;2022-12-18T12:35:16;8.27;;;4.15;;
46447;SDS011;32145;50.390;30.778;2022-12-18T12:38:10;12.07;;;5.45;;
46447;SDS011;32145;50.390;30.778;2022-12-18T12:41:01;11.77;;;6.63;;
46447;SDS011;32145;50.390;30.778;2022-12-18T12:43:48;13.93;;;6.72;;
46447;SDS011;32145;50.390;30.778;2022-12-18T12:46:34;13.68;;;7.22;;
46447;SDS011;32145;50.390;30.778;2022-12-18T12:49:21;14.55;;;7.55;;
46447;SDS011;32145;50.390;30.778;2022-12-18T12:52:12;14.88;;;7.45;;
46447;SDS011;32145;50.390;30.778;2022-12-18T12:55:00;18.30;;;8.73;;
46447;SDS011;32145;50.390;30.778;2022-12-18T12:57:48;15.98;;;7.03;;
46447;SDS011;32145;50.390;30.778;2022-12-18T13:00:41;8.20;;;4.75;;
46447;SDS011;32145;50.390;30.778;2022-12-18T13:03:33;11.07;;;5.75;;
46447;SDS011;32145;50.390;30.778;2022-12-18T13:06:28;10.15;;;4.53;;
46447;SDS011;32145;50.390;30.778;2022-12-18T13:09:21;13.52;;;6.18;;
46447;SDS011;32145;50.390;30.778;2022-12-18T13:12:08;13.50;;;6.68;;
46447;SDS011;32145;50.390;30.778;2022-12-18T13:14:56;15.10;;;7.10;;
46447;SDS011;32145;50.390;30.778;2022-12-18T13:18:03;11.82;;;5.50;;
46447;SDS011;32145;50.390;30.778;2022-12-18T13:21:02;14.00;;;6.43;;
46447;SDS011;32145;50.390;30.778;2022-12-18T19:42:34;17.80;;;8.60;;
46447;SDS011;32145;50.390;30.778;2022-12-18T19:45:19;19.00;;;8.18;;
46447;SDS011;32145;50.390;30.778;2022-12-18T19:48:03;17.25;;;6.90;;
46447;SDS011;32145;50.390;30.778;2022-12-18T19:50:48;17.98;;;7.20;;
46447;SDS011;32145;50.390;30.778;2022-12-18T19:53:32;13.70;;;6.05;;
46447;SDS011;32145;50.390;30.778;2022-12-18T19:56:17;17.50;;;7.47;;
46447;SDS011;32145;50.390;30.778;2022-12-18T19:59:03;14.80;;;7.03;;
46447;SDS011;32145;50.390;30.778;2022-12-18T20:01:47;18.10;;;7.60;;
